Alta Loma, Texas
Current Conditions -  °F | °C
As of 10:52 AM on Friday 28 Nov 2014 (Local Time) from KGLS Reporting Station
Clear Clear  
Wind Chill: 66°   Ceiling: Unl
Heat Index: 66°   Visibility: 10mi
Dew Point: 56°   Wind: 14mph
Humidity: 70%   Direction: 130°SE
Pressure: 30.34"   Gusts: NA
Location:  29.359°N, 95.0861°W
Report Text: KGLS 281652Z 13012KT 10SM CLR 19/13 A3034 RMK AO2 SLP273 T01890133
Loading
Personal Weather Stations






























Interactive Weather Map New forecast layout! Learn more

10-Day Weather Forecast

Advertisements
Track Severe Weather on mobile